Alpha, California Weather observations

Data are for observation ending at time listed.
 Day   Time    Ave.   Ave.  Ave.  Vector   Max.   Stn.    Total    Solar   Ave.   Snow 
  of    of     Air    Rel.  Wind   Wind    Wind   Baro.  Precip.   Rad.    Soil   Depth
Year   Day     Temp.  Hum.  Speed  Dir.    Gust   Pres.                    Temp.       
2014   (PST)    F      %     mph   deg.    mph     mb.     in.     W/m2     F      in. 
---------------------------------------------------------------------------------------  
 263    3:40   56.9    40    6.5    82     11.5   787.2    0.00       0    999.0  162.3
 263    3:50   57.0    39    6.2    64     15.9   787.1    0.00       0    999.0  162.3
 263    4:00   56.9    39    6.4    58     19.1   787.1    0.00       0    999.0  162.3
 263    4:10   56.9    39    5.3    57     11.9   787.1    0.00       0    999.0  162.3
 263    4:20   56.9    39    7.2    73     11.8   787.1    0.00       0    999.0  162.3
 263    4:30   56.7    40    6.9    63     14.2   787.1    0.00       0    999.0  162.3
 263    4:40   56.7    39    7.5    70     17.6   787.1    0.00       0    999.0  162.3
 263    4:50   56.6    39    8.1    74     14.5   787.1    0.00       0    999.0  162.3
 263    5:00   56.7    39    8.3    73     16.0   787.1    0.00       0    999.0  162.3
 263    5:10   56.6    39    8.1    68     18.9   787.2    0.00       0    999.0  162.3
 263    5:20   56.2    40    6.2    75     14.2   787.3    0.00       0    999.0  162.3
 263    5:30   56.1    40    6.4    80     12.9   787.5    0.00       0    999.0  162.3
 263    5:40   56.1    40    7.0    82     14.4   787.5    0.00       1    999.0  162.3
 263    5:50   55.9    40    5.9    79     10.8   787.6    0.00       5    999.0  162.3
 263    6:00   55.9    40    5.5    75     13.1   787.7    0.00      15    999.0  162.3
 263    6:10   56.4    40    5.7    79     13.9   787.7    0.00      26    999.0  162.3
 263    6:20   56.8    39    5.9    86     12.5   787.8    0.00      25    999.0  162.3
 263    6:30   56.9    39    4.8   103      8.5   787.9    0.00      30    999.0  162.3
 263    6:40   56.4    40    3.7   104      6.4   788.0    0.00      25    999.0  162.3
 263    6:50   56.4    40    3.2   112      6.1   788.2    0.00      28    999.0  162.3
 263    7:00   57.4    39    3.3    96      6.9   788.3    0.00     123    999.0  162.3
 263    7:10   58.9    37    3.8    82      6.6   788.3    0.00     148    999.0  162.3
 263    7:20   59.6    36    3.4    85      7.1   788.3    0.00     172    999.0  162.2
 263    7:30   60.6    35    4.0   107      7.7   788.3    0.00     195    999.0  162.2
 263    7:40   60.8    35    5.3   106     11.7   788.4    0.00     220    999.0  162.2
 263    7:50   61.5    33    6.4   104     12.9   788.4    0.00     245    999.0  162.1
 263    8:00   62.2    32    7.1   100     15.4   788.4    0.00     270    999.0  161.9
 263    8:10   63.2    30    7.0   104     17.4   788.4    0.00     294    999.0  161.9
 263    8:20   63.9    30    6.9    99     20.6   788.5    0.00     313    999.0  161.9
 263    8:30   65.3    29    6.3   103     14.0   788.5    0.00     332    999.0  161.9
 263    8:40   64.3    28    9.5    96     19.1   788.6    0.00     191    999.0  161.9
 263    8:50   64.5    28    8.9    91     17.8   788.6    0.00      71    999.0  161.9
 263    9:00   64.1    28    9.2    98     19.7   788.7    0.00     235    999.0  161.9
 263    9:10   65.0    27    9.2    94     18.2   788.8    0.00     416    999.0  161.9
 263    9:20   65.6    27    9.6    96     16.2   788.8    0.00     434    999.0  161.8
 263    9:30   65.5    27    8.4   106     16.1   788.8    0.00     454    999.0  161.7
 263    9:40   66.4    26    8.1    94     14.2   788.9    0.00     472    999.0  161.7
 263    9:50   68.0    25    7.1    99     12.5   788.9    0.00     488    999.0  161.9
 263   10:00   67.5    25    7.6   105     15.1   789.0    0.00     503    999.0  161.9
 263   10:10   67.8    25    7.2   104     15.8   789.0    0.00     516    999.0  161.9
 263   10:20   68.6    24    7.4   108     17.7   788.9    0.00     528    999.0  161.9
 263   10:30   68.0    24    8.6   106     15.3   788.9    0.00     538    999.0  161.9
 263   10:40   69.3    23    6.0   115     12.1   788.9    0.00     549    999.0  162.0
 263   10:50   69.9    22    7.1   120     16.1   788.9    0.00     556    999.0  162.0
 263   11:00   69.6    23    7.6   109     14.0   788.8    0.00     562    999.0  161.9
 263   11:10   70.2    22    6.2   106     13.2   788.7    0.00     570    999.0  162.0
 263   11:20   70.5    22    5.6   128     11.5   788.7    0.00     563    999.0  162.0
 263   11:30   69.7    27    6.5   145     15.6   788.6    0.00     528    999.0  162.0
 263   11:40   69.0    28    6.4   152     13.9   788.6    0.00     510    999.0  162.0
 263   11:50   68.2    33    5.1   184     11.5   788.6    0.00     512    999.0  162.0
 263   12:00   67.2    35    4.4   210      9.8   788.6    0.00     473    999.0  162.0
 263   12:10   67.3    35    1.8   244      6.6   788.6    0.00     504    999.0  162.1
 263   12:20   68.8    35    2.7   243      9.3   788.6    0.00     483    999.0  162.1
 263   12:30   68.0    35    3.0   286      6.5   788.6    0.00     448    999.0  162.0
 263   12:40   66.4    36    2.9   299     10.2   788.6    0.00     464    999.0  162.1
 263   12:50   66.3    35    2.8   287      8.8   788.7    0.00     433    999.0  162.1
 263   13:00   66.6    34    2.1   303      4.7   788.6    0.00     419    999.0  162.1
 263   13:10   67.3    32    2.4   305      6.5   788.6    0.00     441    999.0  162.1
 263   13:20   65.5    34    2.6   305      8.3   788.6    0.00     409    999.0  162.1
 263   13:30   65.6    35    3.0   288      8.5   788.6    0.00     446    999.0  162.1
 263   13:40   65.5    36    2.7   297      9.9   788.5    0.00     421    999.0  162.1
 263   13:50   65.6    36    2.6   295      7.1   788.4    0.00     298    999.0  162.1
 263   14:00   64.7    37    3.0   286      8.1   788.5    0.00     249    999.0  162.1
 263   14:10   65.1    38    2.7   293      9.6   788.4    0.00     369    999.0  162.1
 263   14:20   64.4    39    2.6   302      7.0   788.4    0.00     242    999.0  162.0
 263   14:30   64.5    39    2.3   304      6.4   788.4    0.00     328    999.0  161.9
 263   14:40   64.6    39    2.6   280      6.6   788.5    0.00     279    999.0  162.1
 263   14:50   63.0    42    2.9   284      8.7   788.4    0.00      92    999.0  161.9
 263   15:00   61.4    45    1.7   320      3.5   788.3    0.00      34    999.0  161.9
 263   15:10   60.7    44    1.5   314      4.0   788.2    0.00      38    999.0  161.9
 263   15:20   60.1    44    2.1   307      4.5   788.2    0.00      36    999.0  162.1
 263   15:30   59.6    46    1.4   310      4.3   788.2    0.00      32    999.0  162.2
 263   15:40   59.5    46    1.5   302      4.1   788.2    0.00      30    999.0  162.2
 263   15:50   59.2    48    1.2   314      3.1   788.1    0.00      24    999.0  162.2
 263   16:00   58.6    51    1.7   303      3.9   788.1    0.00      14    999.0  162.2
 263   16:10   58.0    52    0.3   275      2.0   788.4    0.00       7    999.0  162.0
 263   16:20   57.7    53    0.7   311      2.2   788.3    0.00       4    999.0  162.0
 263   16:30   57.4    54    1.1    54      3.4   788.4    0.00       2    999.0  162.0
 263   16:40   56.8    55    3.1   100      5.2   788.9    0.00       1    999.0  161.8
 263   16:50   56.0    59    3.7   121      7.6   789.1    0.00       1    999.0  162.0
 263   17:00   53.9    69    8.9   110     15.4   788.9    0.00       1    999.0  117.0
 263   17:10   53.8    66    7.5   141     12.5   788.6    0.00       1    999.0  162.0
 263   17:20   56.1    55    8.2   148     14.3   788.1    0.00       2    999.0  146.8
 263   17:30   56.0    55    4.2   131      8.2   788.3    0.00       2    999.0  162.0
 263   17:40   55.9    55    1.1   353      3.4   788.3    0.00       1    999.0  162.0
 263   17:50   56.1    52    4.8    99      7.4   788.5    0.00       1    999.0  162.0
 263   18:00   56.0    52    4.3    78      7.9   788.4    0.00       1    999.0  161.9
 263   18:10   55.9    50    1.8     4      4.2   788.4    0.00       0    999.0  161.8
 263   18:20   55.4    52    2.7   236      7.6   788.1    0.00       0    999.0  161.9
 263   18:30   54.6    57    2.5   145      7.4   788.3    0.00       0    999.0  132.2
 263   18:40   53.5    62    4.1   127      7.8   788.6    0.00       0    999.0   45.3
 263   18:50   53.7    57    6.7   145     13.6   789.0    0.00       0    999.0   75.3
 263   19:00   53.6    58    8.2   138     17.6   789.2    0.00       0    999.0  161.1
 263   19:10   51.8    68    6.5   136     15.7   789.4    0.00       0    999.0   58.8
 263   19:20   50.9    70    5.7   134     13.7   789.4    0.00       0    999.0   15.0
 263   19:30   50.3    71    4.8   103     12.3   789.5    0.00       0    999.0   15.3
 263   19:40   49.8    70    6.8   109     13.5   789.3    0.00       0    999.0   15.3
 263   19:50   49.4    70    6.5   101     13.2   789.2    0.00       0    999.0   13.2
 263   20:00   49.4    69    5.6   118     12.5   789.2    0.00       0    999.0   12.0
 263   20:10   49.7    67    4.9   118      9.8   789.2    0.00       0    999.0   14.5
 263   20:20   50.1    65    5.9   107     10.6   789.3    0.00       0    999.0   14.4
 263   20:30   50.7    62    6.4   113     14.8   789.3    0.00       0    999.0   29.3
 263   20:40   51.0    60    6.1   110     12.7   789.4    0.00       0    999.0   29.2
 263   20:50   51.7    58    5.1    87      9.1   789.4    0.00       0    999.0   14.1
 263   21:00   51.4    59    4.9    78      7.0   789.3    0.00       0    999.0   44.3
 263   21:10   51.4    59    4.7    77      6.6   789.3    0.00       0    999.0  161.8
 263   21:20   51.8    57    3.9    79      6.6   789.4    0.00       0    999.0   73.2
 263   21:30   52.3    54    2.2    83      3.5   789.3    0.00       0    999.0   15.3
 263   21:40   53.3    51    2.2    83      3.7   789.4    0.00       0    999.0   15.2
 263   21:50   53.9    48    1.2   111      2.0   789.3    0.00       0    999.0   14.9
 263   22:00   54.6    46    1.4   120      2.2   789.2    0.00       0    999.0   15.1
 263   22:10   54.5    46    1.1   114      1.9   789.2    0.00       0    999.0   15.3
 263   22:20   54.8    45    1.4   103      2.0   789.3    0.00       0    999.0   15.5
 263   22:30   55.1    44    0.7   124      1.5   789.3    0.00       0    999.0   15.6
 263   22:40   55.2    44    0.1   220      1.0   789.3    0.00       0    999.0   15.6
 263   22:50   55.2    44    0.1   254      1.0   789.2    0.00       0    999.0   15.6
 263   23:00   55.3    44    0.7   247      6.1   789.3    0.00       0    999.0   15.4
 263   23:10   53.3    54    3.7   147      9.8   789.3    0.00       0    999.0   14.8
 263   23:20   52.6    54    3.2   136      5.6   789.4    0.00       0    999.0   15.1
 263   23:30   52.8    53    3.6   111      6.8   789.5    0.00       0    999.0   15.1
 263   23:40   53.3    51    3.2   102      5.9   789.4    0.00       0    999.0   14.9
 263   23:50   53.5    51    3.8    95      6.3   789.3    0.00       0    999.0   12.8
 264    0:00   53.2    52    5.0   108     14.0   789.3    0.00       0    999.0   14.1
 264    0:10   53.0    53    4.8   107      8.6   789.2    0.00       0    999.0   14.4
 264    0:20   52.5    54    3.4   107      7.7   789.1    0.00       0    999.0   14.6
 264    0:30   52.1    54    3.1    95      5.8   788.9    0.00       0    999.0   14.3
 264    0:40   52.5    52    4.9   104     11.7   788.6    0.00       0    999.0   14.4
 264    0:50   52.6    52    3.1    81      8.1   788.5    0.00       0    999.0   14.4
 264    1:00   52.1    53    3.8   101     14.5   788.7    0.00       0    999.0   14.3
 264    1:10   52.4    52    6.1   110     12.5   788.5    0.00       0    999.0   14.4
 264    1:20   52.0    54    6.5    88     11.3   788.1    0.00       0    999.0   14.9
 264    1:30   51.4    55    6.1    75     11.8   788.0    0.00       0    999.0   58.7
 264    1:40   51.2    54    5.9    73     11.7   787.8    0.00       0    999.0   85.6
 264    1:50   51.8    52    3.7    70      9.8   787.7    0.00       0    999.0   14.4
 264    2:00   51.6    53    1.9   333      4.1   787.4    0.00       0    999.0   14.4
 264    2:10   51.4    53    2.3   332      4.9   787.2    0.00       0    999.0   16.3
 264    2:20   52.2    51    4.6   356     10.8   787.0    0.00       0    999.0   16.7
 264    2:30   53.3    48    3.4   357      9.3   787.3    0.00       0    999.0   16.7
 264    2:40   54.4    46    1.9    17      5.1   787.4    0.00       0    999.0   16.6
 264    2:50   54.7    45    2.0   162      5.3   787.5    0.00       0    999.0   16.6
 264    3:00   54.6    45    2.6   158      4.8   787.6    0.00       0    999.0   16.5
 264    3:10   54.1    46    2.4   119      4.5   787.7    0.00       0    999.0   16.5
 264    3:20   54.6    44    2.4   134      6.4   787.7    0.00       0    999.0   16.0
 264    3:30   53.9    47    2.3   130      4.4   787.6    0.00       0    999.0   16.0

Return to Alpha graphs page.


Western Regional Climate Center,wrcc@dri.edu